sensor_id;sensor_type;location;lat;lon;timestamp;pressure;altitude;pressure_sealevel;temperature;humidity
3464;BME280;3551;41.578;24.706;2023-02-16T02:46:56;92187.13;;;-2.31;85.28
3464;BME280;3551;41.578;24.706;2023-02-16T08:07:30;92229.78;;;1.69;70.23
3464;BME280;3551;41.578;24.706;2023-02-16T08:14:15;92210.72;;;1.55;70.44
3464;BME280;3551;41.578;24.706;2023-02-16T09:00:35;92223.25;;;3.44;64.15
3464;BME280;3551;41.578;24.706;2023-02-16T09:03:20;92183.06;;;3.51;63.68
3464;BME280;3551;41.578;24.706;2023-02-16T09:13:17;92214.78;;;3.71;63.05
3464;BME280;3551;41.578;24.706;2023-02-16T09:16:06;92186.91;;;3.74;62.75
3464;BME280;3551;41.578;24.706;2023-02-16T09:22:38;92194.34;;;4.13;61.93
3464;BME280;3551;41.578;24.706;2023-02-16T09:32:46;92184.56;;;4.38;60.33
3464;BME280;3551;41.578;24.706;2023-02-16T09:40:08;92185.72;;;4.73;58.17
3464;BME280;3551;41.578;24.706;2023-02-16T09:43:19;92169.19;;;4.88;56.19
3464;BME280;3551;41.578;24.706;2023-02-16T09:46:16;92190.56;;;5.32;56.62
3464;BME280;3551;41.578;24.706;2023-02-16T09:49:21;92162.06;;;5.29;55.55
3464;BME280;3551;41.578;24.706;2023-02-16T09:52:30;92179.41;;;5.26;53.07
3464;BME280;3551;41.578;24.706;2023-02-16T09:55:10;92180.88;;;5.63;51.65
3464;BME280;3551;41.578;24.706;2023-02-16T09:58:18;92183.06;;;5.34;52.13
3464;BME280;3551;41.578;24.706;2023-02-16T10:01:35;92196.25;;;5.70;50.93
3464;BME280;3551;41.578;24.706;2023-02-16T10:08:25;92179.78;;;5.64;51.23
3464;BME280;3551;41.578;24.706;2023-02-16T10:14:30;92179.19;;;6.11;52.60
3464;BME280;3551;41.578;24.706;2023-02-16T10:17:30;92194.50;;;6.45;51.44
3464;BME280;3551;41.578;24.706;2023-02-16T10:20:19;92173.06;;;6.22;50.92
3464;BME280;3551;41.578;24.706;2023-02-16T10:23:03;92176.34;;;6.32;51.57
3464;BME280;3551;41.578;24.706;2023-02-16T10:25:43;92167.09;;;6.41;51.05
3464;BME280;3551;41.578;24.706;2023-02-16T10:28:19;92113.44;;;6.20;51.41
3464;BME280;3551;41.578;24.706;2023-02-16T10:31:02;92153.28;;;6.51;52.10
3464;BME280;3551;41.578;24.706;2023-02-16T10:33:39;92137.44;;;6.39;51.73
3464;BME280;3551;41.578;24.706;2023-02-16T10:36:23;92144.50;;;6.47;51.83
3464;BME280;3551;41.578;24.706;2023-02-16T10:39:04;92160.34;;;6.59;51.80
3464;BME280;3551;41.578;24.706;2023-02-16T10:41:39;92145.59;;;6.62;50.97
3464;BME280;3551;41.578;24.706;2023-02-16T10:44:10;92151.34;;;6.79;51.44
3464;BME280;3551;41.578;24.706;2023-02-16T10:46:42;92142.06;;;6.89;51.15
3464;BME280;3551;41.578;24.706;2023-02-16T10:49:14;92137.41;;;7.02;51.14
3464;BME280;3551;41.578;24.706;2023-02-16T10:51:48;92151.69;;;6.78;51.80
3464;BME280;3551;41.578;24.706;2023-02-16T10:54:32;92108.31;;;6.58;52.09
3464;BME280;3551;41.578;24.706;2023-02-16T10:57:25;92135.38;;;6.95;52.08
3464;BME280;3551;41.578;24.706;2023-02-16T11:00:43;92177.06;;;6.91;51.73
3464;BME280;3551;41.578;24.706;2023-02-16T11:03:42;92120.78;;;6.89;51.54
3464;BME280;3551;41.578;24.706;2023-02-16T11:06:30;92113.50;;;6.86;50.56
3464;BME280;3551;41.578;24.706;2023-02-16T11:09:35;92134.44;;;6.88;50.22
3464;BME280;3551;41.578;24.706;2023-02-16T11:12:43;92109.75;;;6.87;50.18
3464;BME280;3551;41.578;24.706;2023-02-16T11:15:52;92124.53;;;7.04;50.24
3464;BME280;3551;41.578;24.706;2023-02-16T11:18:37;92102.25;;;7.08;49.40
3464;BME280;3551;41.578;24.706;2023-02-16T11:21:54;92100.78;;;7.11;50.01
3464;BME280;3551;41.578;24.706;2023-02-16T11:25:33;92119.47;;;7.14;50.68
3464;BME280;3551;41.578;24.706;2023-02-16T12:10:49;92073.63;;;7.98;53.43
3464;BME280;3551;41.578;24.706;2023-02-16T12:13:31;92075.28;;;8.06;52.66
3464;BME280;3551;41.578;24.706;2023-02-16T12:16:24;92072.22;;;8.04;52.42
3464;BME280;3551;41.578;24.706;2023-02-16T12:19:17;92069.69;;;8.11;52.63
3464;BME280;3551;41.578;24.706;2023-02-16T12:21:51;92068.63;;;8.15;53.02
3464;BME280;3551;41.578;24.706;2023-02-16T12:27:22;92061.69;;;8.11;52.32
3464;BME280;3551;41.578;24.706;2023-02-16T12:30:00;92052.44;;;7.63;54.22
3464;BME280;3551;41.578;24.706;2023-02-16T12:32:43;92062.09;;;7.52;55.26
3464;BME280;3551;41.578;24.706;2023-02-16T12:35:36;92050.47;;;7.60;55.33
3464;BME280;3551;41.578;24.706;2023-02-16T12:38:34;92051.72;;;7.66;55.14
3464;BME280;3551;41.578;24.706;2023-02-16T12:41:20;92051.50;;;7.74;54.58
3464;BME280;3551;41.578;24.706;2023-02-16T12:47:28;92054.63;;;7.99;55.07
3464;BME280;3551;41.578;24.706;2023-02-16T12:50:09;92051.34;;;7.86;55.38
3464;BME280;3551;41.578;24.706;2023-02-16T12:53:12;92047.72;;;7.75;56.32
3464;BME280;3551;41.578;24.706;2023-02-16T12:56:13;92039.28;;;7.70;56.44
3464;BME280;3551;41.578;24.706;2023-02-16T12:58:48;92048.28;;;7.84;56.20
3464;BME280;3551;41.578;24.706;2023-02-16T13:01:27;92049.19;;;7.92;56.54
3464;BME280;3551;41.578;24.706;2023-02-16T13:04:37;92044.91;;;7.87;56.41
3464;BME280;3551;41.578;24.706;2023-02-16T13:10:13;92042.63;;;7.67;57.47
3464;BME280;3551;41.578;24.706;2023-02-16T13:12:47;92066.09;;;7.61;57.56
3464;BME280;3551;41.578;24.706;2023-02-16T13:15:22;92033.16;;;7.69;57.84
3464;BME280;3551;41.578;24.706;2023-02-16T13:18:35;92044.03;;;7.61;58.76
3464;BME280;3551;41.578;24.706;2023-02-16T14:07:39;92037.41;;;7.32;61.72
3464;BME280;3551;41.578;24.706;2023-02-16T14:10:12;92044.72;;;7.38;61.70
3464;BME280;3551;41.578;24.706;2023-02-16T14:19:25;92037.34;;;6.94;63.54
3464;BME280;3551;41.578;24.706;2023-02-16T14:22:34;92033.88;;;7.09;63.50
3464;BME280;3551;41.578;24.706;2023-02-16T14:36:45;92031.41;;;7.00;63.84
3464;BME280;3551;41.578;24.706;2023-02-16T14:40:17;92034.41;;;6.99;64.07
3464;BME280;3551;41.578;24.706;2023-02-16T14:43:15;92033.34;;;6.84;64.39
3464;BME280;3551;41.578;24.706;2023-02-16T14:55:23;92037.66;;;6.57;65.93
3464;BME280;3551;41.578;24.706;2023-02-16T14:57:57;92041.75;;;6.36;67.08
3464;BME280;3551;41.578;24.706;2023-02-16T15:00:56;92038.63;;;6.49;67.03
3464;BME280;3551;41.578;24.706;2023-02-16T15:03:52;92046.28;;;6.35;66.76
3464;BME280;3551;41.578;24.706;2023-02-16T15:06:51;92056.13;;;6.03;68.66
3464;BME280;3551;41.578;24.706;2023-02-16T15:09:40;92044.38;;;6.20;68.21
3464;BME280;3551;41.578;24.706;2023-02-16T15:15:17;92049.00;;;6.23;68.36
3464;BME280;3551;41.578;24.706;2023-02-16T15:27:27;92047.72;;;5.86;71.07
3464;BME280;3551;41.578;24.706;2023-02-16T15:43:24;92051.16;;;5.86;71.03
3464;BME280;3551;41.578;24.706;2023-02-16T15:46:21;92050.25;;;5.82;70.58
3464;BME280;3551;41.578;24.706;2023-02-16T15:49:18;92049.28;;;5.75;70.21
3464;BME280;3551;41.578;24.706;2023-02-16T15:52:04;92046.19;;;5.57;71.90
3464;BME280;3551;41.578;24.706;2023-02-16T15:54:46;92053.06;;;5.46;72.40
3464;BME280;3551;41.578;24.706;2023-02-16T18:17:20;92127.72;;;2.83;81.65
3464;BME280;3551;41.578;24.706;2023-02-16T19:28:25;92098.50;;;2.01;85.21
3464;BME280;3551;41.578;24.706;2023-02-16T19:42:53;92101.00;;;1.97;85.28
3464;BME280;3551;41.578;24.706;2023-02-16T19:45:39;92105.75;;;1.57;87.22
3464;BME280;3551;41.578;24.706;2023-02-16T19:52:02;92106.31;;;1.80;86.30
3464;BME280;3551;41.578;24.706;2023-02-16T20:23:40;92109.91;;;1.67;86.02
3464;BME280;3551;41.578;24.706;2023-02-16T20:26:29;92102.63;;;1.55;86.56
3464;BME280;3551;41.578;24.706;2023-02-16T20:29:27;92103.59;;;1.51;87.00
3464;BME280;3551;41.578;24.706;2023-02-16T20:35:38;92105.75;;;1.40;87.93
3464;BME280;3551;41.578;24.706;2023-02-16T20:38:32;92098.03;;;1.35;87.63
3464;BME280;3551;41.578;24.706;2023-02-16T21:44:15;92101.75;;;0.91;88.44
3464;BME280;3551;41.578;24.706;2023-02-16T23:33:15;92052.59;;;0.10;91.56
3464;BME280;3551;41.578;24.706;2023-02-16T23:36:07;92055.56;;;0.25;91.04
